Multiplayer (Season 2) Tournaments Campaign Leaderboards Pantheon (past seasons)


berserkker Global Bronze Silver Gold Platinum Diamond Master Grandmaster


All modes combined Collection Domination Elimination


Stats Latest matches Ghost matches


berserkker

White lines = victories against a stronger player / defeats against a weaker player
Italic player names = ghosts


Previous matches >

TimeMatch IDGame ModeMap SeedPlayerVSOpponentInitial deltaDifference between opponents' initial scores
2019-03-04 12:30:53 UTC1723704Collection1334878320berserkker (1203 -20)82 nodes (Beta 3.2)VS Jrerem (1207 +20)21 nodes (Beta 3.2)-4
2019-02-06 21:24:22 UTC1671501Collection1876345075berserkker (1183 +20)134 nodes (Beta 3.2)VS nabelringer (1186 -20)112 nodes (Beta 4 RC)-3
2019-02-06 21:22:26 UTC1671494Collection1331230541berserkker (1162 +21)134 nodes (Beta 3.2)VS Gargantuan (1184 -21)117 nodes (Beta 4 RC6)-22
2019-02-06 21:17:00 UTC1671481Collection1074275589berserkker (1183 -21)131 nodes (Beta 3.2)VS Harjanaz (1164 +21)18 nodes (Beta 4 RC8)+19
2019-02-06 21:12:05 UTC1671473Collection1693549643berserkker (1162 +21)129 nodes (Beta 3.2)VS Jeffrey=Harpen (1172 -21)23 nodes (Beta 3.2)-10
2019-02-06 21:08:17 UTC1671459Collection1736437153berserkker (1142 +20)129 nodes (Beta 3.2)VS OVERKILL27 (1135 -20)35 nodes (Beta 3.2)+7
2019-02-05 21:41:00 UTC1669201Collection939855398berserkker (1161 -19)129 nodes (Beta 3.2)VS Jin-Gitaxias (1172 +19)89 nodes (Beta 3.2)-11
2019-02-05 21:38:52 UTC1669196Collection106889522berserkker (1140 +21)129 nodes (Beta 3.2)VS rossco198207 (1156 -21)64 nodes (Beta 3.2)-16
2019-02-05 21:15:58 UTC1669137Collection720190183berserkker (1160 -20)129 nodes (Beta 3.2)VS (€o€;) (1162 +20)1525 nodes (Beta 3.2)-2
2019-02-05 21:07:18 UTC1669111Collection1237849134berserkker (1181 -21)129 nodes (Beta 3.2)VS i.am.progamer (1169 +21)78 nodes (Beta 3.2)+12
2019-02-05 21:05:06 UTC1669108Collection1293274259berserkker (1201 -20)129 nodes (Beta 3.2)VS roadriff (1202 +20)112 nodes (Beta 3.2)-1
2019-02-05 21:02:44 UTC1669100Collection1327190601berserkker (1182 +19)129 nodes (Beta 3.2)VS Lithox (1170 -19)118 nodes (Beta 3.2)+12
2019-02-05 21:00:26 UTC1669094Collection1963700299berserkker (1202 -20)128 nodes (Beta 3.2)VS DeltaVictor (1206 +20)54 nodes (Beta 3.2)-4
2019-02-05 20:57:59 UTC1669085Collection400892290berserkker (1182 +20)126 nodes (Beta 3.2)VS MrNicoteco (1183 -20)52 nodes (Beta 3.2)-1
2019-02-05 20:55:04 UTC1669078Collection796483293berserkker (1161 +21)126 nodes (Beta 3.2)VS 159159 (1170 -21)65 nodes (Beta 3.2)-9
2019-02-05 20:52:02 UTC1669064Collection1246465392berserkker (1140 +21)127 nodes (Beta 3.2)VS rabboni2 (1152 -21)72 nodes (Beta 3.2)-12
2019-02-05 20:50:03 UTC1669059Collection363637337berserkker (1160 -20)127 nodes (Beta 3.2)VS REKT 4 LIFE (1166 +20)49 nodes (Beta 3.2)-6
2019-02-05 20:47:02 UTC1669050Collection1369421219berserkker (1180 -20)125 nodes (Beta 3.2)VS BagOfSalad (1173 +20)51 nodes (Beta 3.2)+7
2019-02-05 20:46:18 UTC1669048Collection2127406368berserkker (1159 +21)125 nodes (Beta 3.2)VS Tomatoman (1169 -21)77 nodes (Beta 3.2)-10
2019-02-05 20:42:54 UTC1669036Collection1362490421berserkker (1139 +20)125 nodes (Beta 3.2)VS Xloty (1133 -20)48 nodes (Beta 3.2)+6
2019-02-05 20:33:20 UTC1669006Collection1568494489berserkker (1119 +20)124 nodes (Beta 3.2)VS studenov (1119 -20)73 nodes (Beta 3.2)+0
2019-02-05 20:30:49 UTC1669000Collection1134943410berserkker (1118 +1)124 nodes (Beta 3.2)VS NibbleBit (1136 -1)125 nodes (Beta 3.2)-18
2019-02-05 20:26:55 UTC1668992Collection358936370berserkker (1117 +1)124 nodes (Beta 3.2)VS Guiga-Tuffy (1139 -1)194 nodes (Beta 4 RC6)-22
2019-02-05 20:25:22 UTC1668988Collection1440440572berserkker (1098 +19)124 nodes (Beta 3.2)VS JustinDCN (1073 -19)57 nodes (Beta 3.2)+25
2019-02-05 19:37:23 UTC1668920Collection181345415berserkker (1118 -20)111 nodes (Beta 3.2)VS Moorwen722 (1121 +20)57 nodes (Beta 3.2)-3
2019-02-05 07:34:29 UTC1667762Collection589284082berserkker (1120 -2)111 nodes (Beta 3.2)VS badger38 (1061 +2)23 nodes (Beta 3.2)+59
2019-02-04 23:10:38 UTC1667145Collection62991283berserkker (1141 -21)111 nodes (Beta 3.2)VS tongzhoujie (1131 +21)69 nodes (Beta 3.2)+10
2019-02-04 23:09:56 UTC1667142Collection394855544berserkker (1120 +21)111 nodes (Beta 3.2)VS Chen Moshao (1146 -21)59 nodes (Beta 3.2)-26
2019-02-04 23:08:11 UTC1667139Collection1823940406berserkker (1099 +21)111 nodes (Beta 3.2)VS Loader (1119 -21)42 nodes (Beta 3.2)-20
2019-02-04 22:37:47 UTC1667093Collection1704331642berserkker (1119 -20)110 nodes (Beta 3.2)VS G0dM0deJ0gze (1125 +20)35 nodes (Beta 3.2)-6
2019-02-04 22:35:22 UTC1667087Collection1978425146berserkker (1139 -20)68 nodes (Beta 3.2)VS а1_123 (1137 +20)17 nodes (Beta 3.2)+2
2019-02-04 22:28:01 UTC1667073Collection1469590989berserkker (1158 -19)68 nodes (Beta 3.2)VS AIL (1173 +19)33 nodes (Beta 3.2)-15
2019-02-04 22:27:27 UTC1667071Collection1683032640berserkker (1139 +19)68 nodes (Beta 3.2)VS Jhonathan001 (1121 -19)68 nodes (Beta 3.2)+18
2019-02-04 22:21:37 UTC1667060Collection486203140berserkker (1159 -20)65 nodes (Beta 3.2)VS obsoletesolidus (1157 +20)81 nodes (Beta 3.2)+2
2019-02-04 22:16:29 UTC1667052Collection1769379922berserkker (1159 +0)59 nodes (Beta 3.2)VS bladewench (1150 +0)69 nodes (Beta 3.2)+9
2019-02-04 22:14:52 UTC1667049Collection1330867526berserkker (1159 +0)59 nodes (Beta 3.2)VS Bibliophage (1159 +0)91 nodes (Beta 3.2)+0
2019-02-04 22:14:18 UTC1667048Collection1183809236berserkker (1141 +18)59 nodes (Beta 3.2)VS Midnight Dreary (1110 -18)69 nodes (Beta 3.2)+31
2019-02-04 22:12:14 UTC1667045Collection1079726236berserkker (1162 -21)58 nodes (Beta 3.2)VS zh0ul (1148 +21)224 nodes (Beta 3.2)+14
2019-02-04 22:09:42 UTC1667043Collection2104421703berserkker (1181 -19)58 nodes (Beta 3.2)VS dD_777 (1197 +19)145 nodes (Beta 4 RC7)-16
2019-02-04 22:08:01 UTC1667040Collection43942553berserkker (1162 +19)58 nodes (Beta 3.2)VS Vikor (1140 -19)41 nodes (Beta 3.2)+22
2019-02-04 22:07:05 UTC1667037Collection2031609189berserkker (1142 +20)58 nodes (Beta 3.2)VS (QerO) (1135 -20)26 nodes (Beta 3.2)+7
2019-02-04 21:35:37 UTC1667001Collection936366288berserkker (1163 -21)153 nodes (Beta 3.2)VS TemplarGFX (1154 +21)192 nodes (Beta 3.2)+9
2019-02-04 21:31:59 UTC1666993Collection697456107berserkker (1163 +0)153 nodes (Beta 3.2)VS bleidddrwg (1153 +0)55 nodes (Beta 3.2)+10
2019-02-04 21:18:06 UTC1666965Collection1766294694berserkker (1184 -21)153 nodes (Beta 3.2)VS FranchuFranchu1 (1170 +21)134 nodes (Beta 4 RC8)+14
2019-02-04 21:17:06 UTC1666961Collection2017535541berserkker (1163 +21)153 nodes (Beta 3.2)VS Trojan2 (1180 -21)27 nodes (Beta 3.2)-17
2019-02-04 21:16:13 UTC1666959Collection1817388006berserkker (1143 +20)153 nodes (Beta 3.2)VS durckma (1147 -20)65 nodes (Beta 4 RC)-4
2019-02-04 21:15:18 UTC1666955Collection1693180892berserkker (1122 +21)153 nodes (Beta 3.2)VS Nonterrorist (1134 -21)72 nodes (Beta 4 RC8)-12
2019-02-04 21:13:41 UTC1666951Collection1372425190berserkker (1102 +20)153 nodes (Beta 3.2)VS BluburroSeven (1101 -20)99 nodes (Beta 3.2)+1
2019-02-04 21:12:52 UTC1666948Collection251575956berserkker (1084 +18)153 nodes (Beta 3.2)VS vince2f (1055 -18)35 nodes (Beta 3.2)+29
2019-02-04 21:12:19 UTC1666946Collection1558098908berserkker (1105 -21)153 nodes (Beta 3.2)VS Bo0m (1094 +21)61 nodes (Beta 3.2)+11
2019-02-04 21:10:29 UTC1666943Collection712876263berserkker (1125 -20)153 nodes (Beta 3.2)VS Thecalfex (1127 +20)30 nodes (Beta 3.2)-2
2019-02-04 21:08:51 UTC1666940Collection393455231berserkker (1104 +21)153 nodes (Beta 3.2)VS Visha (1130 -21)69 nodes (Beta 3.2)-26
2019-02-04 21:07:08 UTC1666937Collection700974591berserkker (1125 -21)128 nodes (Beta 3.2)VS _Ender_ (1113 +21)15 nodes (Beta 3.2)+12
2019-02-03 20:57:07 UTC1664829Collection1044298308berserkker (1146 -21)189 nodes (Beta 3.2)VS noname 2.0 (1135 +21)465 nodes (Beta 4 RC6)+11
2019-02-03 17:24:10 UTC1664327Collection1220382153berserkker (1166 -20)158 nodes (Beta 3.2)VS bluelense2 (1171 +20)83 nodes (Beta 3.2)-5
2019-02-03 17:19:52 UTC1664310Collection1482929578berserkker (1186 -20)146 nodes (Beta 3.2)VS Reivun (1187 +20)62 nodes (Beta 3.2)-1
2019-02-03 17:17:25 UTC1664303Collection842222229berserkker (1186 +0)145 nodes (Beta 3.2)VS Plazman (1184 +0)62 nodes (Beta 3.2)+2
2019-02-03 16:46:43 UTC1664165Collection1185469523berserkker (1204 -18)128 nodes (Beta 3.2)VS Macpo (1203 +18)264 nodes (Beta 3.2)+1
2019-02-03 16:43:18 UTC1664151Collection1958146778berserkker (1221 -17)127 nodes (Beta 3.2)VS HummelHummel (1235 +17)181 nodes (Beta 3.2)-14
2019-02-03 16:41:56 UTC1664144Collection1343480092berserkker (1203 +18)127 nodes (Beta 3.2)VS Lux Solis Pax (1213 -18)39 nodes (Beta 3.2)-10
2019-02-03 16:37:05 UTC1664125Collection1583807749berserkker (1221 -18)127 nodes (Beta 3.2)VS sir lard (1219 +18)66 nodes (Beta 3.2)+2
2019-02-03 16:35:28 UTC1664118Collection452286157berserkker (1221 +0)127 nodes (Beta 3.2)VS iamnogamer (1218 +0)147 nodes (Beta 4 RC)+3
2019-02-03 16:33:46 UTC1664112Collection783484095berserkker (1202 +19)135 nodes (Beta 3.2)VS hn8888 (1227 -19)58 nodes (Beta 3.2)-25
2019-02-03 16:05:42 UTC1663996Collection1668071310berserkker (1219 +0)139 nodes (Beta 3.2)VS leech (1235 +0)63 nodes (Beta 3.2)-16
2019-02-03 15:31:36 UTC1663883Collection821287993berserkker (1235 -16)188 nodes (Beta 3.2)VS IDO (1260 +16)107 nodes (Beta 3.2)-25
2019-02-03 15:28:05 UTC1663871Collection229642990berserkker (1253 -18)187 nodes (Beta 3.2)VS ToastyBagel (1253 +18)88 nodes (Beta 3.2)+0
2019-02-03 15:27:04 UTC1663864Collection1483015478berserkker (1235 +18)187 nodes (Beta 3.2)VS NomSTee (1240 -18)123 nodes (Beta 3.2)-5
2019-02-03 15:20:50 UTC1663833Collection1734446209berserkker (1253 -18)185 nodes (Beta 3.2)VS elecdric (1253 +18)76 nodes (Beta 3.2)+0
2019-02-03 15:17:37 UTC1663817Collection1053890828berserkker (1270 -17)183 nodes (Beta 3.2)VS Cuoleen (1280 +17)154 nodes (Beta 3.2)-10
2019-02-03 15:16:08 UTC1663810Collection1374685024berserkker (1287 -17)183 nodes (Beta 3.2)VS onandez (1289 +17)76 nodes (Beta 3.2)-2
2019-02-03 15:14:42 UTC1663798Collection1748898603berserkker (1305 -18)183 nodes (Beta 3.2)VS krishnakant (1288 +18)88 nodes (Beta 3.2)+17
2019-02-03 15:11:35 UTC1663786Collection303167962berserkker (1322 -17)183 nodes (Beta 3.2)VS jkjkjkjkdos (1332 +17)47 nodes (Beta 3.2)-10
2019-02-03 15:10:39 UTC1663784Collection727055717berserkker (1340 -18)170 nodes (Beta 3.2)VS Hanako+Derakkusu (1340 +18)67 nodes (Beta 4 RC)+0
2019-02-03 15:07:49 UTC1663778Collection830096853berserkker (1340 +0)171 nodes (Beta 3.2)VS X50CalHeadshotX (1328 +0)837 nodes (Beta 4 RC8)+12
2019-02-03 15:05:00 UTC1663770Collection1739391896berserkker (1358 -18)170 nodes (Beta 3.2)VS zx100 (1358 +18)60 nodes (Beta 3.2)+0
2019-02-03 15:03:35 UTC1663765Collection602610415berserkker (1376 -18)169 nodes (Beta 3.2)VS Payge (1376 +18)155 nodes (Beta 3.2)+0
2019-02-03 15:01:19 UTC1663757Collection1139404758berserkker (1376 +0)168 nodes (Beta 3.2)VS Eike (1372 +0)63 nodes (Beta 3.2)+4
2019-02-03 14:58:49 UTC1663752Collection399583446berserkker (1376 +0)169 nodes (Beta 3.2)VS pengin8000 (1382 +0)58 nodes (Beta 3.2)-6
2019-02-03 14:55:45 UTC1663745Collection685835705berserkker (1394 -18)182 nodes (Beta 3.2)VS GB0093 (1390 +18)92 nodes (Beta 3.2)+4
2019-02-03 14:53:01 UTC1663740Collection1022197220berserkker (1376 +18)182 nodes (Beta 3.2)VS Ninjarub (1377 -18)92 nodes (Beta 3.2)-1
2019-02-03 14:49:06 UTC1663733Collection1032995630berserkker (1358 +18)182 nodes (Beta 3.2)VS justK (1371 -18)225 nodes (Beta 3.2)-13
2019-02-03 14:47:06 UTC1663727Collection243801140berserkker (1340 +18)182 nodes (Beta 3.2)VS SpeedDeath (1349 -18)150 nodes (Beta 3.2)-9
2019-02-03 14:46:15 UTC1663725Collection576349211berserkker (1323 +17)182 nodes (Beta 3.2)VS ( Lord@sh ) (1322 -17)45 nodes (Beta 3.2)+1
2019-02-03 14:43:23 UTC1663718Collection1054404891berserkker (1305 +18)182 nodes (Beta 3.2)VS Coolyen (1306 -18)147 nodes (Beta 3.2)-1
2019-02-03 14:40:24 UTC1663711Collection1972402202berserkker (1287 +18)182 nodes (Beta 3.2)VS DarthKyle (1293 -18)238 nodes (Beta 3.2)-6
2019-02-03 14:38:29 UTC1663709Collection2042385515berserkker (1287 +0)182 nodes (Beta 3.2)VS SystemLich (1297 +0)32 nodes (Beta 3.2)-10
2019-02-03 14:35:24 UTC1663703Collection674956512berserkker (1305 -18)179 nodes (Beta 3.2)VS 서버2243 (1299 +18)27 nodes (Beta 3.2)+6
2019-02-03 14:33:49 UTC1663698Collection137127853berserkker (1305 +0)179 nodes (Beta 3.2)VS Brickless (1304 +0)507 nodes (Beta 3.2)+1
2019-02-03 14:32:29 UTC1663695Collection1271514777berserkker (1288 +17)179 nodes (Beta 3.2)VS VampWire (1287 -17)95 nodes (Beta 3.2)+1
2019-02-03 14:30:02 UTC1663692Collection1501167919berserkker (1288 +0)178 nodes (Beta 3.2)VS +_+ (1292 +0)387 nodes (Beta 3.2)-4
2019-02-03 14:29:08 UTC1663687Collection510729520berserkker (1270 +18)178 nodes (Beta 3.2)VS secretly a robot (1272 -18)38 nodes (Beta 3.2)-2
2019-02-03 14:28:28 UTC1663685Collection144363830berserkker (1252 +18)178 nodes (Beta 3.2)VS rewer609 (1253 -18)30 nodes (Beta 4 RC)-1
2019-02-03 14:24:58 UTC1663678Collection1140327913berserkker (1270 -18)177 nodes (Beta 3.2)VS SungMoon (1269 +18)114 nodes (Beta 3.2)+1
2019-02-03 14:23:15 UTC1663675Collection714678688berserkker (1288 -18)177 nodes (Beta 3.2)VS NikOff (1280 +18)149 nodes (Beta 3.2)+8
2019-02-03 14:19:32 UTC1663664Collection1181577324berserkker (1271 +17)174 nodes (Beta 3.2)VS Teddy_88 (1268 -17)664 nodes (Beta 3.2)+3
2019-02-03 14:17:22 UTC1663657Collection608885334berserkker (1253 +18)174 nodes (Beta 3.2)VS jeb (1263 -18)17 nodes (Beta 3.2)-10
2019-02-03 14:16:25 UTC1663655Collection1663710003berserkker (1234 +19)174 nodes (Beta 3.2)VS T0TProduction (1211 -19)90 nodes (Beta 4 RC8)+23
2019-02-03 14:15:21 UTC1663652Collection186265774berserkker (1214 +20)174 nodes (Beta 3.2)VS 261718 (1216 -20)87 nodes (Beta 4 RC)-2
2019-02-03 14:13:00 UTC1663643Collection1215908294berserkker (1195 +19)173 nodes (Beta 3.2)VS mexage (1171 -19)161 nodes (Beta 3.2)+24
2019-02-03 14:08:54 UTC1663634Collection575640939berserkker (1175 +20)172 nodes (Beta 3.2)VS KittyNoAim (1170 -20)29 nodes (Beta 3.2)+5

Previous matches >